Time;durP1;ratioP1;P1;durP2;ratioP2;P2;SDS_P1;SDS_P2;PMS_P1;PMS_P2;Temp;Humidity;BMP_temperature;BMP_pressure;BME280_temperature;BME280_humidity;BME280_pressure;Samples;Min_cycle;Max_cycle;Signal;HPM_P1;HPM_P2
2022/05/30 00:00:18;;;;;;;6.97;3.37;;;;;;;15.95;93.02;94200.59;5032815;28;20208;-80
2022/05/30 00:02:43;;;;;;;10.30;3.20;;;;;;;15.87;92.83;94189.69;5032393;28;20180;-80
2022/05/30 00:05:09;;;;;;;4.17;3.17;;;;;;;15.96;92.43;94196.09;5032387;28;20195;-80
2022/05/30 00:07:38;;;;;;;6.40;3.50;;;;;;;15.96;92.31;94204.84;5032479;28;20269;-80
2022/05/30 00:10:08;;;;;;;5.67;3.50;;;;;;;15.98;91.81;94210.72;5032405;28;20182;-80
2022/05/30 00:12:35;;;;;;;8.67;3.20;;;;;;;15.96;91.74;94204.06;5032667;28;20180;-80
2022/05/30 00:15:01;;;;;;;4.73;3.53;;;;;;;15.85;91.60;94192.59;5032327;28;20164;-80
2022/05/30 00:17:27;;;;;;;6.03;3.20;;;;;;;15.72;92.31;94201.84;5032348;28;20175;-80
2022/05/30 00:19:52;;;;;;;10.73;3.60;;;;;;;15.45;92.60;94167.44;5032126;28;20203;-80
2022/05/30 00:22:18;;;;;;;3.17;2.67;;;;;;;15.56;92.89;94199.38;5032236;28;20190;-80
2022/05/30 00:24:44;;;;;;;5.70;3.20;;;;;;;15.54;93.19;94207.59;5032597;28;20241;-79
2022/05/30 00:27:11;;;;;;;6.90;3.30;;;;;;;15.18;93.41;94174.72;5032158;28;20565;-80
2022/05/30 00:29:37;;;;;;;5.60;3.40;;;;;;;15.03;93.33;94190.53;5032248;28;20216;-80
2022/05/30 00:32:05;;;;;;;5.77;3.83;;;;;;;14.95;94.19;94189.16;5014745;28;20186;-79
2022/05/30 00:34:31;;;;;;;4.27;3.07;;;;;;;14.98;94.50;94193.13;5014381;28;20214;-80
2022/05/30 00:36:57;;;;;;;5.17;2.87;;;;;;;15.09;94.29;94202.75;5031939;28;20172;-80
2022/05/30 00:39:22;;;;;;;5.57;3.83;;;;;;;15.14;94.18;94201.97;5031877;28;20654;-80
2022/05/30 00:41:48;;;;;;;6.93;3.53;;;;;;;15.06;93.38;94168.78;5032260;28;20278;-79
2022/05/30 00:44:13;;;;;;;8.67;3.40;;;;;;;15.17;93.04;94196.97;5031795;28;20688;-80
2022/05/30 00:46:40;;;;;;;7.53;2.90;;;;;;;15.04;93.26;94181.53;5032277;28;20160;-80
2022/05/30 00:49:08;;;;;;;9.10;3.53;;;;;;;15.16;93.66;94210.47;5031874;28;20658;-80
2022/05/30 00:51:41;;;;;;;5.83;3.20;;;;;;;14.97;93.17;94175.63;5031579;28;20187;-80
2022/05/30 00:54:10;;;;;;;5.63;3.47;;;;;;;15.19;92.72;94204.69;5032025;28;20186;-80
2022/05/30 00:56:42;;;;;;;5.93;3.33;;;;;;;14.88;92.80;94155.94;5031704;28;20172;-80
2022/05/30 00:59:08;;;;;;;7.73;4.17;;;;;;;15.20;92.30;94206.28;5031798;28;20176;-80
2022/05/30 01:01:34;;;;;;;8.53;3.57;;;;;;;15.18;92.28;94213.69;5031852;28;20655;-80
2022/05/30 01:06:49;;;;;;;11.03;6.23;;;;;;;15.16;92.70;94199.88;5031995;28;20199;-80
2022/05/30 01:09:18;;;;;;;8.10;4.50;;;;;;;15.14;92.31;94196.69;5032026;28;20187;-80
2022/05/30 01:12:11;;;;;;;6.50;4.10;;;;;;;15.14;92.71;94205.44;5031675;28;20180;-80
2022/05/30 01:14:39;;;;;;;10.57;6.20;;;;;;;15.07;92.99;94202.19;5004665;28;20187;-80
2022/05/30 01:17:11;;;;;;;8.87;4.60;;;;;;;15.18;93.24;94213.69;5031642;28;20186;-80
2022/05/30 01:19:52;;;;;;;6.10;3.63;;;;;;;15.09;92.75;94221.31;5031940;28;20334;-80
2022/05/30 01:22:46;;;;;;;15.60;3.27;;;;;;;14.85;93.36;94220.88;5031642;28;20230;-80
2022/05/30 01:25:20;;;;;;;8.03;3.47;;;;;;;14.80;94.04;94214.72;5023178;28;20180;-80
2022/05/30 01:28:12;;;;;;;4.53;3.43;;;;;;;14.79;93.89;94216.56;5031553;28;20167;-80
2022/05/30 01:30:39;;;;;;;7.07;4.50;;;;;;;14.67;93.66;94190.25;5007637;28;20215;-80
2022/05/30 01:33:06;;;;;;;9.47;6.70;;;;;;;14.79;93.15;94213.91;5031502;28;20191;-79
2022/05/30 01:35:31;;;;;;;8.90;4.00;;;;;;;14.79;93.16;94218.44;5031360;28;20215;-80
2022/05/30 01:37:58;;;;;;;13.17;6.67;;;;;;;14.75;92.68;94209.38;5031647;28;20627;-80
2022/05/30 01:40:26;;;;;;;14.27;8.20;;;;;;;14.84;92.78;94215.81;5031320;28;20274;-80
2022/05/30 01:42:52;;;;;;;21.70;13.73;;;;;;;14.81;92.65;94211.00;5031577;28;20551;-79
2022/05/30 01:45:18;;;;;;;25.63;13.63;;;;;;;14.86;92.26;94224.31;5031359;28;20647;-79
2022/05/30 01:47:44;;;;;;;13.20;7.30;;;;;;;14.65;92.45;94196.84;5022485;28;20174;-79
2022/05/30 01:50:09;;;;;;;12.33;7.70;;;;;;;14.54;92.51;94179.25;5031341;28;20168;-79
2022/05/30 01:52:35;;;;;;;15.60;8.37;;;;;;;14.53;92.47;94173.16;5031571;28;20238;-79
2022/05/30 01:55:00;;;;;;;10.60;5.27;;;;;;;14.72;92.67;94219.41;5031304;28;20184;-79
2022/05/30 01:57:26;;;;;;;11.77;6.37;;;;;;;14.74;92.32;94211.22;5031173;28;20667;-79
2022/05/30 01:59:51;;;;;;;9.67;5.30;;;;;;;14.77;91.99;94213.38;5031546;28;20203;-79
2022/05/30 02:02:16;;;;;;;10.50;6.73;;;;;;;14.61;92.27;94201.06;5031030;28;20659;-79
2022/05/30 02:04:44;;;;;;;12.17;7.57;;;;;;;14.71;92.57;94217.00;5034162;28;20184;-79
2022/05/30 02:07:09;;;;;;;7.20;5.17;;;;;;;14.75;92.04;94225.28;5034781;28;20202;-79
2022/05/30 02:09:35;;;;;;;8.97;5.13;;;;;;;14.54;92.32;94209.19;5034782;28;20203;-79
2022/05/30 02:12:00;;;;;;;8.37;4.70;;;;;;;14.52;92.67;94208.66;5034620;28;20188;-80
2022/05/30 02:14:26;;;;;;;7.27;4.40;;;;;;;14.67;92.67;94231.84;5035239;28;20164;-80
2022/05/30 02:17:00;;;;;;;9.10;5.57;;;;;;;14.61;92.23;94217.75;5034558;28;20168;-79
2022/05/30 02:19:26;;;;;;;6.17;4.00;;;;;;;14.75;92.03;94244.63;5034583;28;20662;-80
2022/05/30 02:21:52;;;;;;;6.47;3.57;;;;;;;14.47;91.75;94213.09;5034618;28;20584;-79
2022/05/30 02:24:17;;;;;;;8.73;4.73;;;;;;;14.61;91.45;94238.16;5034780;28;20183;-79
2022/05/30 02:26:43;;;;;;;20.00;12.13;;;;;;;14.52;91.63;94231.69;5034741;28;20172;-79
2022/05/30 02:29:09;;;;;;;9.93;6.47;;;;;;;14.45;91.25;94218.63;5034422;28;20223;-80
2022/05/30 02:31:34;;;;;;;13.10;5.33;;;;;;;14.22;91.14;94242.72;5034181;28;20309;-80
2022/05/30 02:36:46;;;;;;;19.60;6.60;;;;;;;13.65;93.00;94221.94;5034230;28;20186;-79
2022/05/30 02:39:14;;;;;;;15.97;8.80;;;;;;;13.79;93.38;94243.53;5034256;28;20207;-79
2022/05/30 02:41:40;;;;;;;9.00;4.87;;;;;;;13.70;93.90;94248.44;5034653;28;20163;-80
2022/05/30 02:44:07;;;;;;;16.67;7.23;;;;;;;13.74;94.37;94252.22;5034017;28;20186;-79
2022/05/30 02:46:33;;;;;;;7.77;4.40;;;;;;;13.66;94.66;94231.50;5033934;28;20605;-79
2022/05/30 02:48:58;;;;;;;11.27;6.03;;;;;;;13.66;94.47;94223.56;5034079;28;20183;-80
2022/05/30 02:51:24;;;;;;;18.70;8.67;;;;;;;13.96;94.29;94263.59;5034049;28;20259;-79
2022/05/30 02:53:50;;;;;;;7.77;4.47;;;;;;;14.00;93.67;94268.41;5034053;28;20176;-79
2022/05/30 02:56:16;;;;;;;9.13;5.00;;;;;;;14.08;92.81;94274.06;5034045;28;20246;-79
2022/05/30 02:58:42;;;;;;;6.40;3.67;;;;;;;14.05;92.71;94273.75;5015920;28;20179;-78
2022/05/30 03:01:08;;;;;;;7.77;4.50;;;;;;;14.02;93.11;94276.88;5033368;28;20192;-78
2022/05/30 03:03:34;;;;;;;6.87;4.40;;;;;;;13.98;93.27;94277.41;5031279;28;20194;-79
2022/05/30 03:05:59;;;;;;;10.73;4.93;;;;;;;13.76;93.51;94247.47;5033772;28;20199;-79
2022/05/30 03:08:25;;;;;;;10.97;5.40;;;;;;;14.11;93.42;94291.28;5033696;28;20176;-79
2022/05/30 03:10:50;;;;;;;15.40;7.10;;;;;;;14.11;93.27;94291.28;5033536;28;20654;-79
2022/05/30 03:13:16;;;;;;;19.63;11.10;;;;;;;14.12;93.37;94282.31;5033624;28;20176;-79
2022/05/30 03:15:41;;;;;;;12.50;5.57;;;;;;;14.26;92.60;94302.88;5033053;28;20168;-79
2022/05/30 03:18:07;;;;;;;16.57;9.73;;;;;;;14.32;92.63;94306.38;5033200;28;20171;-79
2022/05/30 03:20:33;;;;;;;17.23;8.10;;;;;;;14.33;92.51;94308.78;5033064;28;20214;-79
2022/05/30 03:22:58;;;;;;;12.93;5.17;;;;;;;14.41;92.22;94315.53;5033068;28;20291;-79
2022/05/30 03:25:24;;;;;;;7.63;4.60;;;;;;;14.32;91.86;94306.38;5032838;28;20182;-79
2022/05/30 03:27:55;;;;;;;11.10;4.90;;;;;;;14.34;92.20;94331.59;5032917;28;20669;-79
2022/05/30 03:30:21;;;;;;;15.10;5.43;;;;;;;14.05;92.43;94284.34;5014877;28;20216;-79
2022/05/30 03:32:47;;;;;;;11.97;6.60;;;;;;;14.14;92.44;94294.25;5015225;28;20199;-78
2022/05/30 03:35:12;;;;;;;10.43;4.77;;;;;;;14.34;92.08;94336.88;5032977;28;20171;-79
2022/05/30 03:37:40;;;;;;;10.60;5.07;;;;;;;14.49;92.55;94352.16;5032972;28;20180;-79
2022/05/30 03:40:08;;;;;;;10.13;5.20;;;;;;;14.53;92.55;94347.97;5032554;28;20731;-79
2022/05/30 03:42:34;;;;;;;10.73;4.37;;;;;;;14.44;92.36;94325.63;5032700;28;20659;-82
2022/05/30 03:44:59;;;;;;;5.83;3.70;;;;;;;14.37;91.81;94327.63;5013152;28;20182;-82
2022/05/30 03:47:25;;;;;;;11.90;6.63;;;;;;;14.70;91.85;94366.47;5032582;28;20171;-79
2022/05/30 03:49:58;;;;;;;11.17;7.03;;;;;;;14.86;92.24;94365.56;5032716;28;20662;-79
2022/05/30 03:52:23;;;;;;;10.13;5.47;;;;;;;14.97;91.14;94371.75;5032582;28;20172;-79
2022/05/30 03:54:49;;;;;;;7.57;3.63;;;;;;;15.12;90.44;94374.59;5032370;28;20262;-80
2022/05/30 03:57:14;;;;;;;6.90;3.73;;;;;;;15.21;89.85;94361.66;5032247;28;20703;-79
2022/05/30 03:59:40;;;;;;;8.03;5.20;;;;;;;15.26;89.81;94362.50;5014372;28;20184;-80
2022/05/30 04:02:05;;;;;;;9.80;6.53;;;;;;;15.46;88.97;94375.16;5032311;28;20222;-80
2022/05/30 04:04:30;;;;;;;7.10;3.90;;;;;;;15.66;88.45;94387.78;5032217;28;20179;-80
2022/05/30 04:06:56;;;;;;;6.77;3.50;;;;;;;15.65;88.14;94368.44;5032531;28;20181;-80
2022/05/30 04:09:21;;;;;;;4.57;3.40;;;;;;;15.90;87.00;94390.91;5031988;28;20643;-80
2022/05/30 04:11:47;;;;;;;5.03;4.03;;;;;;;16.05;87.08;94386.50;5032081;28;20172;-80
2022/05/30 04:14:12;;;;;;;6.20;4.10;;;;;;;16.27;87.65;94390.88;5032034;28;20178;-79
2022/05/30 04:16:37;;;;;;;7.00;4.80;;;;;;;16.45;86.58;94390.44;5032307;28;20302;-80
2022/05/30 04:19:03;;;;;;;8.83;4.73;;;;;;;16.66;85.18;94394.03;5032032;28;20167;-80
2022/05/30 04:21:28;;;;;;;8.60;5.30;;;;;;;16.56;84.22;94378.81;5013038;28;20184;-79
2022/05/30 04:23:53;;;;;;;7.37;5.10;;;;;;;16.75;84.91;94395.94;5032158;28;20180;-79
2022/05/30 04:26:19;;;;;;;6.97;4.37;;;;;;;16.69;84.70;94365.06;5031520;28;20793;-80
2022/05/30 04:28:44;;;;;;;7.87;4.47;;;;;;;17.08;83.73;94407.19;5032000;28;20216;-79
2022/05/30 04:31:12;;;;;;;7.40;5.28;;;;;;;17.14;82.53;94398.97;5032279;28;20194;-79
2022/05/30 04:33:40;;;;;;;6.00;4.43;;;;;;;17.30;82.59;94399.78;5028575;28;20671;-79
2022/05/30 04:36:13;;;;;;;7.43;4.40;;;;;;;17.47;82.47;94399.56;5026731;28;20203;-79
2022/05/30 04:38:39;;;;;;;7.20;4.88;;;;;;;17.63;82.00;94403.88;5030375;28;20286;-80
2022/05/30 04:41:04;;;;;;;9.38;5.30;;;;;;;17.49;80.46;94355.66;5026643;28;20233;-80
2022/05/30 04:43:30;;;;;;;9.00;6.05;;;;;;;17.93;79.88;94401.19;5030173;28;20647;-79
2022/05/30 04:46:12;;;;;;;5.63;3.78;;;;;;;18.22;79.84;94393.44;5032473;28;20168;-81
2022/05/30 04:48:37;;;;;;;11.63;5.50;;;;;;;18.50;80.47;94385.94;5007384;28;20258;-81
2022/05/30 04:51:03;;;;;;;9.90;4.60;;;;;;;18.93;79.92;94398.59;5031540;28;20160;-81
2022/05/30 04:53:29;;;;;;;8.63;4.43;;;;;;;19.36;78.96;94409.56;5030696;28;20666;-80
2022/05/30 04:55:54;;;;;;;7.45;5.80;;;;;;;19.93;77.72;94416.94;5020791;28;20176;-79
2022/05/30 04:58:19;;;;;;;22.60;20.50;;;;;;;20.30;74.83;94430.53;5026391;28;20183;-80
2022/05/30 05:00:45;;;;;;;17.40;15.75;;;;;;;20.44;73.08;94387.09;5022719;28;20192;-80
2022/05/30 05:03:10;;;;;;;29.08;26.73;;;;;;;21.13;71.74;94436.63;5015968;28;20191;-79
2022/05/30 05:05:36;;;;;;;11.65;6.85;;;;;;;21.52;69.11;94439.09;5023244;28;20976;-79
2022/05/30 05:08:16;;;;;;;14.88;9.70;;;;;;;21.89;67.65;94438.25;5029619;28;20233;-80
2022/05/30 05:10:56;;;;;;;34.92;19.40;;;;;;;22.31;66.35;94434.69;5031502;28;20175;-79
2022/05/30 05:13:22;;;;;;;30.65;16.83;;;;;;;22.67;64.64;94450.94;5032115;28;20197;-80
2022/05/30 05:15:47;;;;;;;12.40;7.93;;;;;;;22.84;63.68;94433.19;5031273;28;20180;-80
2022/05/30 05:18:14;;;;;;;14.52;7.18;;;;;;;23.20;62.65;94430.59;5031220;28;20199;-80
2022/05/30 05:20:44;;;;;;;19.00;9.60;;;;;;;23.83;63.06;94448.63;5031516;28;20206;-80
2022/05/30 05:23:11;;;;;;;7.95;5.50;;;;;;;24.28;62.42;94451.38;5031125;28;20192;-80
2022/05/30 05:25:38;;;;;;;10.45;6.43;;;;;;;24.52;60.71;94443.78;5011096;28;20579;-80
2022/05/30 05:28:04;;;;;;;19.48;10.50;;;;;;;24.95;58.70;94451.31;5032034;28;20659;-82
2022/05/30 05:30:30;;;;;;;16.70;8.50;;;;;;;25.32;57.58;94456.19;5013269;28;20214;-80
2022/05/30 05:32:55;;;;;;;8.32;6.38;;;;;;;25.64;56.74;94444.22;5031236;28;20156;-80
2022/05/30 05:35:21;;;;;;;10.48;7.13;;;;;;;25.88;55.62;94449.97;5013112;28;20964;-80
2022/05/30 05:37:46;;;;;;;25.25;15.43;;;;;;;26.42;54.03;94463.16;5011719;28;20179;-80
2022/05/30 05:40:12;;;;;;;26.63;17.63;;;;;;;26.85;52.57;94468.47;5019237;28;20219;-81
2022/05/30 05:42:37;;;;;;;15.13;8.35;;;;;;;26.80;51.06;94422.72;5040125;28;20171;-82
2022/05/30 05:45:03;;;;;;;15.70;7.25;;;;;;;27.07;52.73;94454.72;5034912;28;20249;-81
2022/05/30 05:47:29;;;;;;;13.48;7.63;;;;;;;27.22;52.84;94443.41;5034654;28;20218;-80
2022/05/30 05:49:54;;;;;;;9.70;6.50;;;;;;;26.72;51.29;94453.25;5035576;28;20164;-81
2022/05/30 05:52:20;;;;;;;9.48;6.85;;;;;;;26.00;54.72;94443.16;5036042;28;20196;-82
2022/05/30 05:54:46;;;;;;;10.30;6.25;;;;;;;25.47;56.95;94444.16;5035014;28;20685;-82
2022/05/30 05:57:11;;;;;;;9.68;6.60;;;;;;;25.15;56.31;94458.84;5035454;28;20203;-82
2022/05/30 05:59:37;;;;;;;20.38;11.45;;;;;;;24.76;58.25;94446.09;5054375;28;20253;-82
2022/05/30 06:02:05;;;;;;;11.27;7.18;;;;;;;24.65;60.22;94458.25;5039008;28;20171;-80
2022/05/30 06:04:30;;;;;;;10.52;6.15;;;;;;;24.54;60.02;94454.25;5040185;28;20179;-81
2022/05/30 06:07:00;;;;;;;10.50;7.38;;;;;;;24.35;59.04;94452.53;5048032;28;20166;-81
2022/05/30 06:09:26;;;;;;;23.77;10.82;;;;;;;24.20;61.02;94425.97;5034527;28;20636;-81
2022/05/30 06:11:51;;;;;;;11.65;7.40;;;;;;;24.46;60.15;94455.78;5034266;28;20171;-81
2022/05/30 06:14:16;;;;;;;11.27;8.52;;;;;;;24.48;59.96;94440.09;5033511;28;20187;-81
2022/05/30 06:16:42;;;;;;;12.70;8.20;;;;;;;24.42;59.30;94460.97;5034118;28;20290;-81
2022/05/30 06:19:08;;;;;;;13.50;7.00;;;;;;;24.39;61.11;94468.84;5032372;28;20661;-81
2022/05/30 06:21:34;;;;;;;12.45;7.97;;;;;;;24.50;60.13;94472.88;5034441;28;20206;-80
2022/05/30 06:24:00;;;;;;;9.88;6.65;;;;;;;24.57;60.83;94480.53;5034203;28;20341;-81
2022/05/30 06:26:26;;;;;;;15.77;9.27;;;;;;;24.59;60.41;94459.47;5034269;28;20168;-82
2022/05/30 06:28:54;;;;;;;13.57;10.10;;;;;;;24.83;58.80;94486.84;5016585;28;20277;-81
2022/05/30 06:31:24;;;;;;;11.27;6.68;;;;;;;24.98;59.26;94485.72;5034421;28;20195;-81
2022/05/30 06:33:50;;;;;;;16.95;6.50;;;;;;;25.03;59.07;94499.81;5025810;28;20183;-81
2022/05/30 06:36:18;;;;;;;11.13;6.53;;;;;;;25.05;58.40;94494.13;5034022;28;21065;-81
2022/05/30 06:38:46;;;;;;;8.00;5.72;;;;;;;24.62;57.56;94458.88;5034103;28;20184;-81
2022/05/30 06:41:23;;;;;;;14.30;7.47;;;;;;;24.56;59.51;94490.50;5033982;28;20195;-81
2022/05/30 06:43:52;;;;;;;8.57;5.95;;;;;;;24.51;59.98;94462.91;5034994;28;20180;-81
2022/05/30 06:46:18;;;;;;;11.40;6.65;;;;;;;24.39;60.12;94485.78;5042989;28;20179;-81
2022/05/30 06:48:46;;;;;;;10.60;5.68;;;;;;;24.43;62.47;94488.69;5028861;28;20191;-80
2022/05/30 06:51:13;;;;;;;15.10;7.78;;;;;;;24.60;59.83;94496.88;5029820;28;20178;-80
2022/05/30 06:53:43;;;;;;;15.05;6.40;;;;;;;24.50;60.12;94478.28;5033645;28;20203;-80
2022/05/30 06:56:18;;;;;;;8.45;6.15;;;;;;;24.38;58.90;94492.31;5033807;28;20230;-80
2022/05/30 06:58:45;;;;;;;9.60;6.43;;;;;;;24.38;59.42;94481.53;5033671;28;20171;-80
2022/05/30 07:01:11;;;;;;;13.27;6.60;;;;;;;24.77;61.68;94505.03;5033543;28;20639;-79
2022/05/30 07:03:38;;;;;;;13.43;7.28;;;;;;;24.88;60.33;94489.44;5033773;28;20168;-82
2022/05/30 07:06:08;;;;;;;10.10;6.05;;;;;;;25.26;59.42;94510.53;5041091;28;20241;-79
2022/05/30 07:08:34;;;;;;;9.52;6.50;;;;;;;25.13;58.38;94474.50;5033343;28;20183;-78
2022/05/30 07:11:01;;;;;;;10.38;5.95;;;;;;;25.52;58.05;94504.13;5034596;28;20183;-80
2022/05/30 07:13:27;;;;;;;11.48;5.72;;;;;;;25.53;56.98;94488.75;5038988;28;20171;-79
2022/05/30 07:15:52;;;;;;;8.32;6.30;;;;;;;25.45;57.92;94489.50;5037021;28;20172;-78
2022/05/30 07:18:19;;;;;;;10.93;7.10;;;;;;;25.35;56.32;94504.06;5038714;28;20657;-81
2022/05/30 07:20:45;;;;;;;12.10;7.05;;;;;;;25.05;56.53;94477.97;5033241;28;20226;-81
2022/05/30 07:23:12;;;;;;;10.63;6.20;;;;;;;24.93;58.64;94507.38;5033029;28;20187;-81
2022/05/30 07:25:38;;;;;;;8.60;7.05;;;;;;;24.86;59.52;94501.59;5032609;28;20179;-82
2022/05/30 07:28:05;;;;;;;12.50;5.80;;;;;;;25.11;62.42;94500.97;5031860;28;20187;-78
2022/05/30 07:30:30;;;;;;;10.07;6.72;;;;;;;25.13;58.78;94504.94;5032973;28;20215;-80
2022/05/30 07:32:56;;;;;;;10.77;6.68;;;;;;;25.16;58.21;94507.03;5026761;28;20708;-81
2022/05/30 07:35:22;;;;;;;11.68;5.47;;;;;;;25.17;58.35;94503.19;5032837;28;20175;-80
2022/05/30 07:37:49;;;;;;;6.60;5.30;;;;;;;25.22;55.38;94469.16;5034937;28;20180;-79
2022/05/30 07:40:15;;;;;;;7.82;5.57;;;;;;;25.49;56.32;94485.09;5034518;28;20195;-80
2022/05/30 07:42:41;;;;;;;6.78;5.60;;;;;;;25.84;57.45;94494.09;5032682;28;20263;-81
2022/05/30 07:45:08;;;;;;;8.43;5.03;;;;;;;26.21;55.31;94493.44;5033061;28;20172;-81
2022/05/30 07:47:34;;;;;;;15.00;6.18;;;;;;;26.13;57.84;94498.84;5015128;28;20195;-80
2022/05/30 07:50:02;;;;;;;10.85;8.25;;;;;;;26.06;55.24;94504.72;5015020;28;20207;-78
2022/05/30 07:52:30;;;;;;;12.27;7.20;;;;;;;26.13;58.07;94502.34;5032772;28;20194;-78
2022/05/30 07:54:55;;;;;;;12.07;6.55;;;;;;;26.17;56.29;94508.72;5032818;28;20180;-79
2022/05/30 07:57:50;;;;;;;9.27;5.30;;;;;;;26.58;55.30;94504.75;5032710;28;20221;-79
2022/05/30 08:00:07;;;;;;;11.52;5.75;;;;;;;26.45;52.20;94498.41;5038278;28;20217;-78
2022/05/30 08:02:32;;;;;;;7.43;4.80;;;;;;;26.51;53.70;94489.03;5032374;28;20237;-79
2022/05/30 08:04:58;;;;;;;12.45;6.28;;;;;;;26.77;54.43;94513.28;5033763;28;20187;-80
2022/05/30 08:07:23;;;;;;;16.17;6.18;;;;;;;26.40;54.23;94508.56;5044563;28;20183;-80
2022/05/30 08:09:48;;;;;;;7.30;5.45;;;;;;;26.27;56.25;94480.63;5045205;28;20624;-79
2022/05/30 08:12:14;;;;;;;8.95;6.00;;;;;;;26.65;56.61;94508.53;5037424;28;20267;-79
2022/05/30 08:14:39;;;;;;;11.00;6.00;;;;;;;26.96;53.66;94500.25;5032392;28;20544;-78
2022/05/30 08:17:05;;;;;;;9.68;5.43;;;;;;;27.12;51.29;94507.84;5028909;28;20234;-79
2022/05/30 08:19:31;;;;;;;9.40;5.30;;;;;;;26.97;50.45;94512.66;5027204;28;20175;-78
2022/05/30 08:22:04;;;;;;;7.47;5.70;;;;;;;26.89;52.80;94512.66;5031346;28;20184;-78
2022/05/30 08:24:37;;;;;;;9.63;5.57;;;;;;;26.98;55.30;94502.63;5027159;28;20184;-78
2022/05/30 08:27:03;;;;;;;8.68;5.38;;;;;;;27.27;53.41;94515.41;5031082;28;20183;-78
2022/05/30 08:29:30;;;;;;;9.40;5.47;;;;;;;27.38;54.12;94505.81;5031709;28;20223;-78
2022/05/30 08:31:55;;;;;;;7.55;4.75;;;;;;;27.44;53.38;94507.22;5032072;28;20221;-81
2022/05/30 08:34:21;;;;;;;11.13;5.82;;;;;;;27.73;49.43;94512.69;5012542;28;20184;-79
2022/05/30 08:36:46;;;;;;;7.78;4.63;;;;;;;27.53;51.88;94472.81;5031991;28;20168;-78
2022/05/30 08:41:57;;;;;;;8.80;5.70;;;;;;;27.82;50.38;94519.94;5023295;28;20187;-78
2022/05/30 08:44:22;;;;;;;10.63;5.75;;;;;;;27.84;51.44;94515.00;5025212;28;20171;-80
2022/05/30 08:46:57;;;;;;;12.18;5.63;;;;;;;27.81;51.22;94513.75;5030809;28;20187;-78
2022/05/30 08:49:35;;;;;;;9.38;5.50;;;;;;;27.91;51.12;94516.06;5036413;28;20283;-79
2022/05/30 08:52:15;;;;;;;8.90;5.07;;;;;;;27.93;50.63;94513.03;5045448;28;20730;-78
2022/05/30 08:54:41;;;;;;;8.48;4.90;;;;;;;27.84;51.61;94510.41;5031247;28;20682;-79
2022/05/30 08:57:40;;;;;;;13.43;5.38;;;;;;;28.04;52.20;94514.22;5031358;28;20167;-79
2022/05/30 09:00:05;;;;;;;7.07;5.15;;;;;;;28.12;50.21;94516.88;5012167;28;20196;-79
2022/05/30 09:03:02;;;;;;;17.15;5.30;;;;;;;27.91;48.04;94504.47;5010791;28;20234;-80
2022/05/30 09:05:33;;;;;;;7.22;4.90;;;;;;;27.65;50.76;94521.63;4999750;28;20206;-80
2022/05/30 09:08:03;;;;;;;8.52;5.18;;;;;;;27.67;51.63;94515.91;5010226;28;20211;-79
2022/05/30 09:10:35;;;;;;;11.73;4.32;;;;;;;27.45;49.44;94502.59;5032272;28;20186;-79
2022/05/30 09:13:10;;;;;;;7.95;4.70;;;;;;;27.49;51.30;94525.97;5033226;28;20168;-79
2022/05/30 09:16:10;;;;;;;7.20;5.53;;;;;;;27.26;52.51;94516.50;5028437;28;20190;-79
2022/05/30 09:18:51;;;;;;;6.32;4.60;;;;;;;27.11;49.00;94503.53;5024108;28;20203;-79
2022/05/30 09:21:19;;;;;;;11.57;5.07;;;;;;;27.02;53.03;94522.47;5035524;28;20261;-79
2022/05/30 09:23:45;;;;;;;8.02;5.07;;;;;;;26.87;54.13;94521.06;5036737;28;20176;-79
2022/05/30 09:26:16;;;;;;;5.25;4.32;;;;;;;26.96;54.70;94519.16;5036436;28;20168;-79
2022/05/30 09:28:44;;;;;;;6.43;4.30;;;;;;;26.96;55.67;94512.97;5015619;28;20777;-81
2022/05/30 09:31:20;;;;;;;7.78;4.38;;;;;;;26.83;52.16;94540.94;5037398;28;20164;-79
2022/05/30 09:33:50;;;;;;;11.35;5.43;;;;;;;26.69;54.19;94541.13;5035380;28;20159;-81
2022/05/30 09:36:27;;;;;;;9.05;4.70;;;;;;;26.31;54.69;94538.25;5047767;28;20211;-80
2022/05/30 09:39:01;;;;;;;11.50;5.45;;;;;;;26.34;56.21;94537.63;5017296;28;20172;-80
2022/05/30 09:41:39;;;;;;;8.88;4.85;;;;;;;26.36;56.57;94538.13;5037459;28;20197;-79
2022/05/30 09:44:17;;;;;;;11.88;6.00;;;;;;;26.44;55.64;94533.84;5040628;28;20190;-80
2022/05/30 09:46:49;;;;;;;10.27;4.72;;;;;;;26.27;54.46;94511.13;5035153;28;20639;-81
2022/05/30 09:49:18;;;;;;;14.25;5.32;;;;;;;26.37;56.23;94528.91;5035206;28;20221;-81
2022/05/30 09:51:49;;;;;;;13.45;5.10;;;;;;;26.51;55.45;94532.25;5034930;28;20192;-80
2022/05/30 09:54:24;;;;;;;9.98;5.25;;;;;;;26.62;54.41;94538.91;5035052;28;20168;-80
2022/05/30 09:56:52;;;;;;;11.98;4.97;;;;;;;26.57;54.73;94513.94;5017477;28;20245;-81
2022/05/30 09:59:34;;;;;;;9.63;4.82;;;;;;;26.70;53.17;94533.81;5034930;28;20159;-82
2022/05/30 10:02:01;;;;;;;5.55;4.45;;;;;;;26.53;50.20;94505.72;5017192;28;20192;-82
2022/05/30 10:04:37;;;;;;;8.60;4.53;;;;;;;26.53;52.62;94531.94;5035031;28;20171;-81
2022/05/30 10:07:11;;;;;;;8.55;5.32;;;;;;;26.33;56.21;94521.75;5040376;28;20175;-81
2022/05/30 10:10:19;;;;;;;12.73;5.82;;;;;;;26.38;56.33;94530.47;5034848;28;20256;-81
2022/05/30 10:13:28;;;;;;;7.55;4.13;;;;;;;26.46;55.74;94526.22;5021973;28;20206;-84
2022/05/30 10:15:57;;;;;;;9.20;5.28;;;;;;;26.47;53.50;94533.19;5023471;28;20277;-83
2022/05/30 10:19:03;;;;;;;9.77;4.78;;;;;;;26.28;53.64;94510.03;5013466;28;20172;-82
2022/05/30 10:21:28;;;;;;;6.82;4.75;;;;;;;26.28;56.80;94525.41;5030552;28;20294;-82
2022/05/30 10:30:11;;;;;;;12.45;6.43;;;;;;;26.08;55.18;94534.09;5027117;28;20358;-83
2022/05/30 10:33:07;;;;;;;17.73;8.43;;;;;;;26.05;57.66;94526.63;5034330;28;20172;-82
2022/05/30 10:35:53;;;;;;;9.38;4.32;;;;;;;25.87;59.00;94513.13;5034130;28;20172;-82
2022/05/30 10:38:24;;;;;;;8.60;4.95;;;;;;;25.98;57.30;94532.50;5034132;28;20234;-83
2022/05/30 10:41:09;;;;;;;8.57;5.60;;;;;;;25.92;57.21;94523.78;5016222;28;20583;-83
2022/05/30 10:44:06;;;;;;;7.78;3.90;;;;;;;25.51;54.04;94474.81;5026248;28;20230;-81
2022/05/30 10:47:06;;;;;;;8.30;4.45;;;;;;;25.77;56.26;94529.59;5033902;28;20172;-83
2022/05/30 10:49:35;;;;;;;9.25;5.13;;;;;;;25.64;58.14;94530.53;5030393;28;20325;-83
2022/05/30 10:52:19;;;;;;;8.52;4.07;;;;;;;25.47;55.13;94531.22;5015780;28;20182;-82
2022/05/30 10:55:06;;;;;;;11.35;4.53;;;;;;;25.48;57.23;94527.44;5034104;28;20168;-83
2022/05/30 10:58:17;;;;;;;13.32;5.53;;;;;;;25.38;55.76;94514.22;5026018;28;20175;-82
2022/05/30 11:00:51;;;;;;;13.82;5.22;;;;;;;25.48;57.98;94513.16;4934371;29;20254;-82
2022/05/30 11:03:59;;;;;;;7.57;5.15;;;;;;;25.59;59.06;94511.81;4934464;29;20593;-83
2022/05/30 11:06:29;;;;;;;14.27;6.50;;;;;;;25.58;55.35;94507.47;4959813;28;20193;-83
2022/05/30 11:09:13;;;;;;;9.38;4.43;;;;;;;25.32;57.46;94514.69;5026284;28;20188;-82
2022/05/30 11:11:59;;;;;;;9.98;4.90;;;;;;;25.17;56.74;94487.03;5009007;28;20190;-83
2022/05/30 11:14:46;;;;;;;11.82;5.00;;;;;;;25.50;59.13;94525.22;5033421;28;20176;-83
2022/05/30 11:17:29;;;;;;;10.43;4.90;;;;;;;25.56;55.53;94525.88;5033573;28;20176;-82
2022/05/30 11:20:00;;;;;;;14.40;5.03;;;;;;;25.61;55.69;94522.25;5033493;28;20249;-82
2022/05/30 11:22:30;;;;;;;9.00;4.88;;;;;;;25.72;58.96;94518.16;5033307;28;20175;-82
2022/05/30 11:24:56;;;;;;;9.82;4.63;;;;;;;25.74;57.60;94508.66;5012414;28;20230;-82
2022/05/30 11:27:42;;;;;;;6.13;4.15;;;;;;;25.75;56.72;94504.84;5031720;28;20606;-82
2022/05/30 11:30:30;;;;;;;12.88;4.35;;;;;;;25.81;54.52;94525.16;5033184;28;20274;-83
2022/05/30 11:33:04;;;;;;;10.18;4.18;;;;;;;25.80;56.57;94530.88;5033278;28;20185;-82
2022/05/30 11:35:32;;;;;;;5.50;4.10;;;;;;;25.87;54.34;94523.09;5032804;28;20179;-82
2022/05/30 11:38:19;;;;;;;7.22;4.50;;;;;;;25.88;53.04;94520.09;5033050;28;20179;-83
2022/05/30 11:41:13;;;;;;;10.10;3.97;;;;;;;25.93;53.87;94519.97;5026505;28;20909;-82
2022/05/30 11:43:57;;;;;;;8.00;3.95;;;;;;;25.95;52.52;94518.88;5032793;28;20176;-82
2022/05/30 11:46:36;;;;;;;10.00;4.63;;;;;;;26.05;53.95;94519.31;5009511;28;20660;-83
2022/05/30 11:49:20;;;;;;;10.50;4.10;;;;;;;25.89;51.57;94510.09;5032603;28;20217;-82
2022/05/30 11:52:07;;;;;;;6.65;4.45;;;;;;;25.57;52.61;94516.69;5032635;28;20195;-83
2022/05/30 11:55:03;;;;;;;7.38;4.32;;;;;;;25.56;58.11;94504.31;5032752;28;20178;-83
2022/05/30 11:57:45;;;;;;;8.63;4.72;;;;;;;25.68;56.96;94495.66;5004192;28;20192;-82